FW8186 Weather Reports


Display with metric or nautical units.
time (UTC)temp
F
wind
direction
speed
MPH
gust
MPH
rain 1hr
in
rain 24hr
in
rain mn
in
humidity
%
barometer
mb
20240529054005 72 34 0.0 0.0 0.00 0.00 0.00 66 1062.6
20240529053004 72 142 0.0 0.0 0.00 0.00 0.00 65 1062.6
20240529051503 73 207 0.0 0.0 0.00 0.00 0.00 64 1062.3
20240529050027 73 198 0.0 0.0 0.00 0.00 0.00 63 1063.0
20240529045003 74 195 0.0 0.0 0.00 0.00 0.07 62 1063.0
20240529043502 73 215 0.0 0.0 0.00 0.00 0.07 62 1063.0
20240529042002 74 149 0.0 0.0 0.00 0.00 0.07 61 1062.6
20240529040603 74 54 0.0 0.0 0.00 0.00 0.07 61 1063.0
20240528223502 80 127 0.0 0.0 0.00 0.00 0.07 49 1060.6
20240528222003 80 15 0.0 2.0 0.00 0.00 0.07 53 1060.3
20240528221002 80 153 0.0 0.0 0.00 0.00 0.07 51 1060.3
20240528215503 79 188 0.0 7.0 0.00 0.00 0.07 55 1060.6
20240528212502 82 168 0.0 0.0 0.00 0.00 0.07 46 1059.9
20240528211006 81 150 0.0 0.0 0.00 0.00 0.07 49 1059.9
20240528205502 78 149 0.0 15.0 0.00 0.00 0.07 54 1060.3
20240528202503 76 131 0.0 0.0 0.01 0.00 0.07 59 1064.0
20240528201003 73 135 0.0 2.0 0.03 0.00 0.07 66 1065.4
20240528200002 72 29 2.0 7.0 0.04 0.00 0.07 66 1065.7
20240528194504 69 59 0.0 15.0 0.06 0.00 0.07 75 1065.4
20240528193002 69 60 10.0 14.0 0.05 0.00 0.06 76 1067.7
20240528191502 70 345 0.0 0.0 0.03 0.00 0.03 77 1068.4
20240528190003 71 55 0.0 0.0 0.02 0.00 0.02 75 1067.7
20240528184503 72 4 0.0 0.0 0.01 0.00 0.01 74 1067.7
20240528183010 73 12 0.0 0.0 0.01 0.00 0.01 70 1067.4
20240528181502 76 39 0.0 1.0 0.00 0.00 0.00 63 1067.1
20240528180002 78 49 0.0 0.0 0.00 0.00 0.00 53 1066.0
20240528174503 79 138 0.0 0.0 0.00 0.00 0.00 51 1065.4
20240528173003 81 136 0.0 6.0 0.00 0.00 0.00 50 1064.7
20240528170007 80 131 0.0 0.0 0.00 0.00 0.00 52 1064.3
20240528165003 80 340 0.0 5.0 0.00 0.00 0.00 53 1064.3
20240528163504 79 97 0.0 3.0 0.00 0.00 0.00 53 1064.3
20240528162003 79 156 0.0 6.0 0.00 0.00 0.00 55 1064.3
20240528153502 75 77 0.0 0.0 0.00 0.00 0.00 59 1063.3
20240528152003 75 156 0.0 0.0 0.00 0.00 0.00 61 1063.3
20240528142002 72 125 0.0 0.0 0.00 0.00 0.00 64 1063.0
20240528140503 72 123 0.0 0.0 0.00 0.00 0.00 64 1062.3
20240528134002 71 150 0.0 0.0 0.00 0.00 0.00 64 1062.6
20240528131002 71 141 0.0 2.0 0.00 0.00 0.00 63 1061.6
20240528125502 72 166 0.0 0.0 0.00 0.00 0.00 63 1062.0
20240528124002 72 131 0.0 1.0 0.00 0.00 0.00 62 1062.0
20240528122502 72 139 0.0 0.0 0.00 0.00 0.00 62 1061.3
20240528121003 72 139 0.0 0.0 0.00 0.00 0.00 62 1061.0
20240528115504 72 63 0.0 1.0 0.00 0.00 0.00 62 1060.3
20240528114004 72 140 0.0 3.0 0.00 0.00 0.00 62 1059.9
20240528112507 72 131 0.0 0.0 0.00 0.00 0.00 62 1060.3
20240528111505 72 140 0.0 0.0 0.00 0.00 0.00 62 1060.3
20240528110006 72 159 0.0 0.0 0.00 0.00 0.00 64 1060.3
20240528105004 72 116 0.0 0.0 0.00 0.00 0.00 64 1060.3
20240528104003 72 118 0.0 0.0 0.00 0.00 0.00 64 1060.3
20240528101005 72 131 0.0 4.0 0.00 0.00 0.00 63 1060.6
20240528095507 71 146 0.0 0.0 0.00 0.00 0.00 66 1061.0
20240528094504 70 86 0.0 0.0 0.00 0.00 0.00 69 1061.0
20240528090006 71 72 0.0 3.0 0.00 0.00 0.00 69 1061.0
20240528084505 72 60 0.0 0.0 0.00 0.00 0.00 67 1061.3
20240528081507 71 320 0.0 0.0 0.00 0.00 0.00 67 1061.6
20240528080005 71 119 0.0 0.0 0.00 0.00 0.00 67 1061.3
20240528074505 71 98 0.0 0.0 0.00 0.00 0.00 67 1061.0
20240528073004 72 48 0.0 0.0 0.00 0.00 0.00 68 1061.3
20240528070005 73 34 0.0 0.0 0.00 0.00 0.00 66 1061.0
20240528064506 73 43 0.0 0.0 0.00 0.00 0.00 65 1061.0
20240528063006 75 46 0.0 4.0 0.00 0.00 0.00 60 1061.0
20240528061507 75 118 0.0 1.0 0.00 0.00 0.00 60 1061.3
20240528060005 76 130 0.0 1.0 0.00 0.00 0.00 58 1061.3